Time;durP1;ratioP1;P1;durP2;ratioP2;P2;SDS_P1;SDS_P2;PMS_P1;PMS_P2;Temp;Humidity;BMP_temperature;BMP_pressure;BME280_temperature;BME280_humidity;BME280_pressure;Samples;Min_cycle;Max_cycle;Signal;HPM_P1;HPM_P2
2021/11/09 00:01:52;;;;;;;4.97;3.80;;;;;;;8.44;72.76;99985.95;1728385;82;20986;-74
2021/11/09 00:04:22;;;;;;;7.08;3.98;;;;;;;8.44;72.77;99987.29;1711021;82;21159;-74
2021/11/09 00:06:57;;;;;;;6.45;5.35;;;;;;;8.44;72.98;99995.33;1691943;83;21090;-75
2021/11/09 00:09:17;;;;;;;5.20;4.67;;;;;;;8.40;73.15;99994.95;1712734;82;20972;-74
2021/11/09 00:11:43;;;;;;;6.30;4.55;;;;;;;8.38;73.46;99994.37;1709768;83;21153;-74
2021/11/09 00:14:10;;;;;;;4.87;3.62;;;;;;;8.36;73.76;100000.99;1685263;83;21003;-74
2021/11/09 00:16:37;;;;;;;5.47;4.25;;;;;;;8.35;74.27;100010.07;1711672;83;21136;-75
2021/11/09 00:19:04;;;;;;;6.70;5.00;;;;;;;8.31;75.04;99999.00;1705213;81;21014;-75
2021/11/09 00:21:30;;;;;;;5.60;4.17;;;;;;;8.25;75.78;100006.05;1723835;82;21558;-75
2021/11/09 00:24:00;;;;;;;5.60;4.55;;;;;;;8.19;76.67;100015.53;1675794;83;21000;-76
2021/11/09 00:26:25;;;;;;;4.42;4.05;;;;;;;8.10;77.87;100022.25;1712423;83;21044;-81
2021/11/09 00:28:52;;;;;;;3.42;2.72;;;;;;;8.00;78.96;100016.08;1712106;83;21117;-82
2021/11/09 00:31:18;;;;;;;3.55;2.80;;;;;;;7.87;80.22;100014.36;1736186;81;21540;-79
2021/11/09 00:33:45;;;;;;;3.17;2.87;;;;;;;7.77;79.94;100015.41;1747785;81;21031;-83
2021/11/09 00:36:13;;;;;;;3.80;2.90;;;;;;;7.71;80.55;100023.53;1706183;81;20993;-81
2021/11/09 00:38:42;;;;;;;3.95;3.27;;;;;;;7.65;81.35;100017.20;1754669;81;21013;-81
2021/11/09 00:41:08;;;;;;;3.62;2.00;;;;;;;7.58;81.64;100014.31;1753441;79;21075;-80
2021/11/09 00:43:35;;;;;;;3.85;2.25;;;;;;;7.49;82.11;100011.60;1786193;79;21524;-78
2021/11/09 00:46:01;;;;;;;2.37;2.10;;;;;;;7.38;82.35;100013.17;1799157;79;21023;-80
2021/11/09 00:48:27;;;;;;;3.17;1.67;;;;;;;7.30;82.98;100021.47;1799229;79;21004;-78
2021/11/09 00:50:55;;;;;;;2.00;1.70;;;;;;;7.23;83.40;100017.53;1793884;79;21063;-79
2021/11/09 00:53:21;;;;;;;2.22;1.80;;;;;;;7.19;83.61;100020.35;1763905;80;21020;-78
2021/11/09 00:55:49;;;;;;;1.95;1.85;;;;;;;7.16;83.94;100027.46;1785638;80;20890;-80
2021/11/09 00:58:16;;;;;;;2.92;1.60;;;;;;;7.11;84.24;100023.80;1763932;80;20933;-80
2021/11/09 01:00:42;;;;;;;1.65;1.55;;;;;;;7.06;84.53;100037.83;1786137;79;21050;-80
2021/11/09 01:03:10;;;;;;;2.05;1.85;;;;;;;7.03;84.78;100029.43;1786243;79;21486;-80
2021/11/09 01:05:36;;;;;;;1.57;1.47;;;;;;;6.98;85.08;100024.73;1763506;80;22453;-82
2021/11/09 01:08:08;;;;;;;1.50;1.40;;;;;;;6.96;85.29;100015.59;1755874;81;21002;-82
2021/11/09 01:10:40;;;;;;;2.45;1.60;;;;;;;6.96;85.27;100024.13;1714465;81;21133;-83
2021/11/09 01:13:07;;;;;;;1.60;1.50;;;;;;;6.95;85.36;100028.66;1748190;80;21508;-82
2021/11/09 01:15:36;;;;;;;1.82;1.72;;;;;;;6.91;85.52;100024.78;1760376;80;21107;-83
2021/11/09 01:18:05;;;;;;;4.85;1.80;;;;;;;6.90;85.65;100023.17;1786000;80;21520;-81
2021/11/09 01:20:33;;;;;;;2.15;1.65;;;;;;;6.87;85.70;100026.77;1785632;80;20971;-82
2021/11/09 01:22:59;;;;;;;2.27;1.80;;;;;;;6.85;85.65;100026.19;1764225;80;21009;-81
2021/11/09 01:25:28;;;;;;;3.60;1.80;;;;;;;6.84;85.88;100032.05;1763488;80;21577;-81
2021/11/09 01:27:55;;;;;;;1.87;1.77;;;;;;;6.86;86.09;100030.48;1781581;80;21016;-80
2021/11/09 01:30:22;;;;;;;2.75;1.75;;;;;;;6.87;86.08;100042.30;1763686;80;21025;-78
2021/11/09 01:32:49;;;;;;;1.65;1.55;;;;;;;6.88;86.17;100047.95;1777832;79;20975;-79
2021/11/09 01:35:17;;;;;;;2.02;1.77;;;;;;;6.89;86.15;100046.10;1791319;79;20943;-79
2021/11/09 01:37:45;;;;;;;2.02;1.82;;;;;;;6.90;86.28;100046.41;1793943;79;20994;-83
2021/11/09 01:40:12;;;;;;;2.95;2.02;;;;;;;6.91;86.37;100039.48;1792585;79;21104;-77
2021/11/09 01:42:39;;;;;;;2.45;1.90;;;;;;;6.93;86.44;100046.78;1794792;79;21012;-75
2021/11/09 01:45:08;;;;;;;2.33;2.12;;;;;;;6.95;86.55;100050.59;1787489;79;20963;-84
2021/11/09 01:47:35;;;;;;;1.92;1.82;;;;;;;6.95;86.54;100050.59;1787779;79;21520;-76
2021/11/09 01:50:02;;;;;;;2.17;1.65;;;;;;;6.96;86.48;100058.38;1799074;79;21063;-73
2021/11/09 01:52:28;;;;;;;2.45;2.08;;;;;;;6.95;86.48;100063.41;1744470;81;21041;-77
2021/11/09 01:54:58;;;;;;;1.72;1.62;;;;;;;6.91;86.52;100063.55;1767687;80;21020;-74
2021/11/09 01:57:25;;;;;;;2.00;1.90;;;;;;;6.89;86.59;100055.45;1774261;80;21603;-74
2021/11/09 01:59:52;;;;;;;2.10;1.90;;;;;;;6.86;86.65;100058.03;1785723;80;20987;-74
2021/11/09 02:02:19;;;;;;;2.08;1.98;;;;;;;6.86;86.82;100067.91;1783889;79;20994;-75
2021/11/09 02:04:46;;;;;;;3.08;1.80;;;;;;;6.84;86.80;100076.16;1782899;80;21004;-76
2021/11/09 02:07:12;;;;;;;3.90;2.20;;;;;;;6.83;86.53;100067.84;1763334;80;22089;-83
2021/11/09 02:09:39;;;;;;;3.52;1.90;;;;;;;6.82;86.28;100072.88;1785965;80;20988;-77
2021/11/09 02:12:06;;;;;;;2.40;1.80;;;;;;;6.79;86.38;100073.83;1771092;79;21036;-76
2021/11/09 02:14:34;;;;;;;2.17;2.08;;;;;;;6.75;86.24;100073.45;1788166;79;21046;-76
2021/11/09 02:17:01;;;;;;;1.67;1.57;;;;;;;6.73;86.25;100074.68;1759679;79;20960;-72
2021/11/09 02:19:29;;;;;;;1.77;1.67;;;;;;;6.71;86.08;100083.45;1777263;80;21061;-72
2021/11/09 02:21:56;;;;;;;2.17;2.02;;;;;;;6.69;85.78;100093.02;1756312;81;20981;-74
2021/11/09 02:24:23;;;;;;;2.72;1.47;;;;;;;6.68;85.46;100102.57;1716758;82;21030;-71
2021/11/09 02:26:50;;;;;;;2.08;1.50;;;;;;;6.63;84.72;100098.37;1742086;81;21086;-70
2021/11/09 02:29:16;;;;;;;1.90;1.80;;;;;;;6.59;84.39;100098.00;1742165;81;21082;-71
2021/11/09 02:31:43;;;;;;;2.17;2.00;;;;;;;6.57;84.19;100096.05;1745644;81;21146;-73
2021/11/09 02:34:10;;;;;;;4.37;1.57;;;;;;;6.59;83.59;100099.34;1763161;81;20915;-73
2021/11/09 02:36:36;;;;;;;1.52;1.42;;;;;;;6.56;83.03;100100.59;1739147;81;21551;-72
2021/11/09 02:39:03;;;;;;;2.02;1.55;;;;;;;6.54;82.45;100101.31;1736911;81;20993;-74
2021/11/09 02:41:29;;;;;;;1.70;1.60;;;;;;;6.52;82.35;100114.05;1730747;81;21576;-74
2021/11/09 02:43:59;;;;;;;1.85;1.40;;;;;;;6.44;81.34;100112.15;1742116;82;21141;-74
2021/11/09 02:46:50;;;;;;;1.85;1.75;;;;;;;6.33;80.87;100116.30;1712900;83;21062;-72
2021/11/09 02:49:23;;;;;;;3.52;3.33;;;;;;;6.25;80.93;100117.05;1722676;83;21013;-79
2021/11/09 02:51:56;;;;;;;2.52;2.33;;;;;;;6.19;80.28;100125.39;1696863;83;21569;-73
2021/11/09 02:54:19;;;;;;;2.15;2.00;;;;;;;6.17;80.00;100127.98;1698803;82;21045;-75
2021/11/09 02:56:54;;;;;;;1.47;1.37;;;;;;;6.12;79.59;100128.10;1680489;83;21063;-73
2021/11/09 03:02:06;;;;;;;1.37;1.27;;;;;;;5.95;78.37;100136.23;1705949;82;21013;-73
2021/11/09 03:07:08;;;;;;;1.52;1.20;;;;;;;5.83;78.35;100138.41;1710406;83;20994;-73
2021/11/09 03:12:01;;;;;;;1.80;1.70;;;;;;;5.66;78.45;100138.00;1738372;81;20971;-74
2021/11/09 03:14:27;;;;;;;1.80;1.47;;;;;;;5.64;78.58;100145.41;1713016;83;20938;-75
2021/11/09 03:16:56;;;;;;;2.67;1.95;;;;;;;5.58;78.66;100149.72;1657013;85;21035;-73
2021/11/09 03:46:38;;;;;;;2.17;1.92;;;;;;;4.99;81.54;100166.20;1710566;83;21054;-82
2021/11/09 03:49:06;;;;;;;1.92;1.30;;;;;;;4.96;81.83;100174.58;1700175;83;22276;-82
2021/11/09 03:51:33;;;;;;;1.70;1.37;;;;;;;4.95;82.23;100182.26;1713337;83;21058;-82
2021/11/09 03:54:03;;;;;;;1.67;1.45;;;;;;;4.91;82.54;100191.17;1682349;83;21004;-81
2021/11/09 03:56:39;;;;;;;1.57;1.47;;;;;;;4.88;82.63;100185.44;1689188;83;21060;-83
2021/11/09 03:59:09;;;;;;;2.25;1.45;;;;;;;4.82;82.82;100190.54;1659263;85;21040;-78
2021/11/09 04:01:48;;;;;;;1.95;1.82;;;;;;;4.76;82.99;100187.84;1703161;83;22023;-76
2021/11/09 04:07:10;;;;;;;1.70;1.60;;;;;;;4.73;83.41;100201.58;1713475;83;21010;-76
2021/11/09 04:10:27;;;;;;;1.70;1.60;;;;;;;4.68;83.61;100202.17;1682766;84;21050;-76
2021/11/09 04:12:15;;;;;;;1.92;1.82;;;;;;;4.65;83.63;100200.42;1711507;82;21556;-76
2021/11/09 04:17:06;;;;;;;4.30;1.47;;;;;;;4.54;83.90;100202.31;1682074;84;20940;-75
2021/11/09 04:27:26;;;;;;;2.17;1.80;;;;;;;4.42;84.34;100217.19;1735608;82;21110;-77
2021/11/09 04:30:26;;;;;;;2.30;2.08;;;;;;;4.38;84.41;100212.78;1672034;85;39417;-77
2021/11/09 05:01:52;;;;;;;3.92;2.10;;;;;;;4.03;84.37;100253.73;1655138;85;21087;-79
2021/11/09 05:10:04;;;;;;;2.30;2.10;;;;;;;4.01;84.64;100251.77;1680958;85;21043;-78
2021/11/09 05:12:29;;;;;;;2.15;2.05;;;;;;;4.03;84.65;100258.52;1683123;84;20992;-78
2021/11/09 05:14:55;;;;;;;2.52;1.85;;;;;;;4.03;84.48;100266.50;1705768;84;21405;-77
2021/11/09 05:17:22;;;;;;;2.45;2.25;;;;;;;4.03;84.45;100263.84;1706917;84;21028;-77
2021/11/09 05:19:49;;;;;;;2.35;2.15;;;;;;;3.99;84.41;100271.91;1707093;82;21787;-76
2021/11/09 05:22:18;;;;;;;2.72;2.52;;;;;;;3.96;83.98;100278.95;1680682;84;21094;-76
2021/11/09 05:24:45;;;;;;;2.35;2.15;;;;;;;3.92;83.58;100273.70;1680524;85;21545;-79
2021/11/09 05:27:15;;;;;;;2.15;1.95;;;;;;;3.93;83.57;100289.99;1680618;85;21581;-77
2021/11/09 05:29:40;;;;;;;6.10;2.33;;;;;;;3.92;83.50;100287.01;1684219;84;21053;-80
2021/11/09 05:32:07;;;;;;;2.10;2.00;;;;;;;3.92;83.38;100293.16;1680073;85;21027;-76
2021/11/09 05:34:34;;;;;;;2.35;2.25;;;;;;;3.91;83.24;100301.33;1653872;84;20948;-77
2021/11/09 05:37:01;;;;;;;1.80;1.70;;;;;;;3.90;83.22;100303.16;1709746;82;21058;-77
2021/11/09 05:39:33;;;;;;;2.00;1.90;;;;;;;3.89;83.22;100309.99;1684721;84;21574;-74
2021/11/09 05:41:59;;;;;;;2.85;2.62;;;;;;;3.87;83.13;100304.88;1684767;84;21122;-74
2021/11/09 05:44:27;;;;;;;2.92;1.85;;;;;;;3.91;83.12;100318.62;1708582;84;21590;-77
2021/11/09 05:46:55;;;;;;;2.43;2.10;;;;;;;3.90;82.72;100318.30;1709031;81;21503;-77
2021/11/09 05:49:22;;;;;;;3.58;1.60;;;;;;;3.84;82.46;100327.03;1672861;84;21013;-76
2021/11/09 05:51:49;;;;;;;1.75;1.65;;;;;;;3.84;82.48;100322.54;1680630;84;21072;-77
2021/11/09 05:54:15;;;;;;;1.60;1.52;;;;;;;3.86;82.17;100329.01;1696478;84;20990;-75
2021/11/09 05:56:42;;;;;;;1.60;1.50;;;;;;;3.83;81.57;100336.05;1706279;83;21027;-77
2021/11/09 05:59:08;;;;;;;1.47;1.37;;;;;;;3.80;81.41;100336.41;1682206;84;21022;-79
2021/11/09 06:01:34;;;;;;;1.52;1.42;;;;;;;3.79;81.16;100348.09;1709226;84;21049;-78
2021/11/09 06:04:01;;;;;;;1.75;1.65;;;;;;;3.79;81.08;100355.54;1695563;84;21020;-79
2021/11/09 06:06:27;;;;;;;1.57;1.47;;;;;;;3.78;80.88;100363.73;1703364;84;21065;-79
2021/11/09 06:08:54;;;;;;;2.25;2.05;;;;;;;3.74;80.72;100353.95;1709698;83;21141;-79
2021/11/09 06:11:20;;;;;;;2.15;1.85;;;;;;;3.71;80.77;100367.64;1708913;83;20973;-79
2021/11/09 06:13:48;;;;;;;1.80;1.62;;;;;;;3.70;80.72;100375.30;1708980;83;21550;-81
2021/11/09 06:16:14;;;;;;;1.90;1.80;;;;;;;3.68;80.53;100373.85;1709154;83;21105;-80
2021/11/09 06:18:40;;;;;;;3.27;2.42;;;;;;;3.65;80.44;100383.52;1693960;83;22265;-79
2021/11/09 06:21:07;;;;;;;1.80;1.70;;;;;;;3.63;80.57;100385.06;1709188;84;21939;-81
2021/11/09 06:23:33;;;;;;;1.52;1.42;;;;;;;3.59;80.64;100392.27;1709054;84;21516;-82
2021/11/09 06:26:02;;;;;;;1.70;1.60;;;;;;;3.55;80.59;100389.67;1684165;84;21046;-78
2021/11/09 06:28:29;;;;;;;1.80;1.42;;;;;;;3.53;80.63;100400.98;1662182;84;22120;-83
2021/11/09 06:30:57;;;;;;;1.55;1.40;;;;;;;3.50;80.71;100409.65;1709258;83;21491;-82
2021/11/09 06:33:23;;;;;;;3.02;1.72;;;;;;;3.46;80.64;100413.70;1709497;84;21500;-81
2021/11/09 06:35:51;;;;;;;1.55;1.45;;;;;;;3.46;80.66;100413.70;1709163;84;21031;-83
2021/11/09 06:38:19;;;;;;;1.60;1.50;;;;;;;3.47;80.69;100408.70;1709603;84;21418;-83
2021/11/09 06:40:46;;;;;;;2.60;1.85;;;;;;;3.43;80.26;100418.06;1702136;83;21030;-82
2021/11/09 06:43:12;;;;;;;3.87;2.50;;;;;;;3.39;80.32;100410.14;1681174;85;21582;-81
2021/11/09 06:45:38;;;;;;;1.45;1.35;;;;;;;3.39;80.52;100422.11;1694578;82;21607;-79
2021/11/09 06:48:05;;;;;;;1.55;1.45;;;;;;;3.36;80.30;100416.31;1731829;82;21062;-74
2021/11/09 06:50:34;;;;;;;2.37;2.20;;;;;;;3.34;80.44;100421.02;1724133;82;21102;-77
2021/11/09 06:53:01;;;;;;;2.12;1.98;;;;;;;3.35;80.23;100430.14;1711812;82;21555;-80
2021/11/09 06:55:28;;;;;;;2.20;2.10;;;;;;;3.37;80.18;100426.77;1737077;82;21057;-79
2021/11/09 06:57:54;;;;;;;1.82;1.72;;;;;;;3.42;80.07;100438.19;1741707;81;21047;-79
2021/11/09 07:00:23;;;;;;;1.50;1.40;;;;;;;3.45;79.99;100432.52;1766386;81;21539;-78
2021/11/09 07:02:50;;;;;;;1.90;1.80;;;;;;;3.39;79.42;100450.03;1743103;81;21091;-78
2021/11/09 07:05:17;;;;;;;1.77;1.67;;;;;;;3.33;79.45;100465.88;1710208;82;21047;-77
2021/11/09 07:07:44;;;;;;;2.00;1.80;;;;;;;3.29;79.58;100449.48;1710998;82;21086;-77
2021/11/09 07:10:13;;;;;;;3.08;2.05;;;;;;;3.27;79.55;100461.30;1723764;82;21196;-81
2021/11/09 07:12:40;;;;;;;1.80;1.60;;;;;;;3.25;79.28;100461.50;1669386;84;21042;-80
2021/11/09 07:15:09;;;;;;;5.78;2.00;;;;;;;3.25;79.26;100462.00;1738480;82;20979;-77
2021/11/09 07:17:38;;;;;;;1.80;1.70;;;;;;;3.27;79.08;100470.59;1711732;82;21163;-77
2021/11/09 07:20:10;;;;;;;2.15;1.95;;;;;;;3.25;78.98;100472.13;1738492;81;21637;-80
2021/11/09 07:22:36;;;;;;;1.70;1.60;;;;;;;3.24;78.77;100469.64;1733137;81;21255;-78
2021/11/09 07:25:04;;;;;;;2.05;1.85;;;;;;;3.23;78.51;100474.63;1710517;82;21020;-77
2021/11/09 07:27:32;;;;;;;2.85;2.45;;;;;;;3.21;78.32;100476.16;1738168;82;20955;-78
2021/11/09 07:30:00;;;;;;;2.62;2.35;;;;;;;3.19;78.39;100489.30;1738406;81;20955;-77
2021/11/09 07:32:26;;;;;;;3.30;3.00;;;;;;;3.18;78.14;100490.30;1734207;82;21054;-76
2021/11/09 07:34:53;;;;;;;2.00;1.90;;;;;;;3.15;78.24;100501.31;1738497;81;21086;-74
2021/11/09 07:37:20;;;;;;;3.17;1.77;;;;;;;3.12;78.43;100509.66;1738325;82;21097;-87
2021/11/09 07:39:47;;;;;;;2.15;1.70;;;;;;;3.06;78.63;100488.11;1711397;82;21073;-83
2021/11/09 07:42:15;;;;;;;2.02;1.82;;;;;;;3.04;78.65;100503.90;1717462;81;21024;-86
2021/11/09 07:44:42;;;;;;;2.00;1.90;;;;;;;3.03;78.69;100499.09;1708653;84;21091;-85
2021/11/09 07:47:08;;;;;;;2.92;1.87;;;;;;;3.07;78.84;100500.87;1682414;84;21801;-89
2021/11/09 07:49:36;;;;;;;2.47;2.33;;;;;;;3.05;78.00;100499.74;1712391;82;21604;-79
2021/11/09 07:52:04;;;;;;;2.90;2.40;;;;;;;3.06;77.91;100510.70;1712317;82;21036;-79
2021/11/09 07:54:34;;;;;;;2.62;2.35;;;;;;;3.13;77.72;100518.75;1710510;82;21103;-80
2021/11/09 07:57:05;;;;;;;2.20;2.10;;;;;;;3.15;77.29;100500.81;1738475;81;22305;-79
2021/11/09 07:59:34;;;;;;;2.85;2.25;;;;;;;3.17;77.16;100513.89;1726337;81;21332;-78
2021/11/09 08:02:12;;;;;;;2.27;2.17;;;;;;;3.13;77.26;100506.80;1743733;81;21105;-77
2021/11/09 08:04:39;;;;;;;2.50;2.25;;;;;;;3.15;77.27;100523.90;1727899;82;21531;-77
2021/11/09 08:07:03;;;;;;;2.15;2.00;;;;;;;3.14;77.49;100534.20;1733443;82;20971;-73
2021/11/09 08:09:29;;;;;;;2.37;2.25;;;;;;;3.16;77.42;100534.86;1679414;84;22191;-75
2021/11/09 08:11:59;;;;;;;3.12;2.92;;;;;;;3.19;77.16;100544.62;1737519;82;22338;-78
2021/11/09 08:14:25;;;;;;;2.52;1.90;;;;;;;3.25;77.09;100545.23;1738456;82;20955;-78
2021/11/09 08:16:53;;;;;;;2.02;1.82;;;;;;;3.29;76.67;100542.52;1759542;81;21041;-79
2021/11/09 08:19:20;;;;;;;1.65;1.55;;;;;;;3.31;76.19;100551.66;1755110;81;21085;-79
2021/11/09 08:21:48;;;;;;;1.82;1.72;;;;;;;3.25;74.89;100566.50;1709296;82;22193;-76
2021/11/09 08:24:17;;;;;;;1.95;1.60;;;;;;;3.26;75.17;100571.31;1732608;82;21884;-78
2021/11/09 08:26:45;;;;;;;1.72;1.60;;;;;;;3.27;75.09;100568.45;1738005;82;21058;-77
2021/11/09 08:29:13;;;;;;;2.33;1.55;;;;;;;3.28;74.83;100563.97;1725230;82;21027;-78
2021/11/09 08:31:43;;;;;;;1.60;1.50;;;;;;;3.28;74.78;100563.47;1731855;82;21066;-78
2021/11/09 08:34:09;;;;;;;1.65;1.55;;;;;;;3.26;74.37;100573.97;1730482;82;23853;-77
2021/11/09 08:36:36;;;;;;;1.37;1.27;;;;;;;3.22;73.71;100585.94;1701719;83;21548;-74
2021/11/09 08:39:05;;;;;;;1.47;1.40;;;;;;;3.22;73.40;100593.42;1708792;83;21634;-75
2021/11/09 08:41:48;;;;;;;1.55;1.45;;;;;;;3.20;72.67;100575.52;1702450;82;21037;-75
2021/11/09 08:44:16;;;;;;;1.62;1.40;;;;;;;3.17;72.65;100586.48;1738420;82;21539;-75
2021/11/09 08:46:47;;;;;;;1.57;1.47;;;;;;;3.19;72.36;100592.96;1682841;83;21046;-76
2021/11/09 08:49:10;;;;;;;1.60;1.37;;;;;;;3.22;71.89;100599.23;1667483;83;21055;-81
2021/11/09 08:51:36;;;;;;;1.27;1.17;;;;;;;3.23;71.38;100605.72;1683132;85;20959;-80
2021/11/09 08:54:20;;;;;;;1.50;1.40;;;;;;;3.26;70.68;100611.19;1713436;83;21025;-80
2021/11/09 09:04:54;;;;;;;1.90;1.30;;;;;;;3.21;69.94;100621.03;1677024;85;21041;-76
2021/11/09 09:07:26;;;;;;;1.50;1.40;;;;;;;3.19;69.97;100624.86;1710173;82;20964;-80
2021/11/09 09:09:54;;;;;;;4.08;1.40;;;;;;;3.22;70.12;100626.65;1706057;84;21588;-81
2021/11/09 09:12:21;;;;;;;1.87;1.77;;;;;;;3.27;69.40;100620.29;1711511;83;21105;-81
2021/11/09 09:14:48;;;;;;;1.72;1.62;;;;;;;3.29;68.50;100628.09;1713525;83;21068;-82
2021/11/09 09:17:15;;;;;;;3.02;1.55;;;;;;;3.30;68.59;100634.58;1712763;82;21007;-78
2021/11/09 09:19:47;;;;;;;1.98;1.72;;;;;;;3.34;68.48;100629.72;1708121;83;21592;-77
2021/11/09 09:22:12;;;;;;;1.70;1.60;;;;;;;3.36;68.30;100645.80;1684446;85;20998;-77
2021/11/09 09:24:46;;;;;;;2.83;1.70;;;;;;;3.40;67.71;100658.25;1684802;85;21575;-83
2021/11/09 09:27:27;;;;;;;2.05;1.47;;;;;;;3.41;66.96;100646.09;1684290;85;21558;-77
2021/11/09 09:30:33;;;;;;;1.60;1.50;;;;;;;3.44;66.62;100659.05;1696697;82;21054;-82
2021/11/09 09:57:06;;;;;;;1.20;1.20;;;;;;;3.58;63.70;100680.52;1743532;81;21059;-77
2021/11/09 09:59:35;;;;;;;3.60;3.15;;;;;;;3.55;62.79;100680.89;1761551;81;21081;-79
2021/11/09 10:02:14;;;;;;;1.20;1.20;;;;;;;3.60;63.73;100685.17;1740266;81;20985;-82
2021/11/09 10:04:47;;;;;;;2.42;1.50;;;;;;;3.63;63.71;100685.63;1738867;82;21039;-77
2021/11/09 10:07:30;;;;;;;2.65;1.80;;;;;;;3.66;63.65;100683.10;1713469;82;21019;-75
2021/11/09 10:09:58;;;;;;;2.12;1.67;;;;;;;3.69;64.11;100690.73;1711096;82;20976;-82
2021/11/09 10:12:35;;;;;;;1.60;1.50;;;;;;;3.69;63.75;100704.87;1746672;81;20985;-82
2021/11/09 10:15:08;;;;;;;1.52;1.42;;;;;;;3.63;62.91;100702.09;1764444;81;21030;-79
2021/11/09 10:17:38;;;;;;;1.42;1.32;;;;;;;3.57;62.16;100704.13;1737925;82;21039;-76
2021/11/09 10:20:21;;;;;;;1.70;1.45;;;;;;;3.54;62.19;100701.34;1713799;82;21086;-81
2021/11/09 10:22:54;;;;;;;3.70;1.40;;;;;;;3.51;61.07;100709.16;1739213;82;20956;-83
2021/11/09 10:25:22;;;;;;;1.77;1.67;;;;;;;3.50;60.71;100706.17;1714044;82;21015;-82
2021/11/09 10:27:51;;;;;;;1.65;1.20;;;;;;;3.53;60.55;100724.95;1737257;82;21074;-82
2021/11/09 10:30:34;;;;;;;1.70;1.60;;;;;;;3.52;59.94;100715.31;1739191;82;21498;-80
2021/11/09 10:33:01;;;;;;;1.42;1.32;;;;;;;3.51;59.73;100711.82;1726739;82;21361;-76
2021/11/09 10:35:27;;;;;;;1.05;1.02;;;;;;;3.50;59.68;100716.01;1713301;82;20914;-76
2021/11/09 10:37:57;;;;;;;1.25;1.20;;;;;;;3.48;59.89;100714.84;1712380;82;21094;-87
2021/11/09 10:40:27;;;;;;;1.98;1.80;;;;;;;3.49;60.02;100714.34;1738286;81;21076;-88
2021/11/09 10:42:59;;;;;;;5.83;2.65;;;;;;;3.48;60.38;100704.21;1735839;82;21518;-88
2021/11/09 10:45:29;;;;;;;6.25;3.72;;;;;;;3.50;60.71;100700.85;1736575;82;21134;-85
2021/11/09 10:48:00;;;;;;;3.87;2.40;;;;;;;3.54;60.53;100707.16;1710876;81;20964;-88
2021/11/09 10:50:30;;;;;;;6.75;4.35;;;;;;;3.57;60.18;100717.44;1712323;81;21113;-87
2021/11/09 10:53:21;;;;;;;3.95;2.80;;;;;;;3.64;59.66;100715.72;1705700;82;21011;-85
2021/11/09 11:06:32;;;;;;;9.75;3.62;;;;;;;3.84;58.45;100719.50;1697282;82;21109;-77
2021/11/09 11:09:13;;;;;;;5.50;3.25;;;;;;;3.89;58.69;100717.95;1693290;83;21199;-72
2021/11/09 11:11:50;;;;;;;3.20;2.50;;;;;;;3.82;58.35;100719.70;1724309;81;22367;-79
2021/11/09 11:14:21;;;;;;;4.85;3.27;;;;;;;3.77;58.77;100731.89;1727529;81;21552;-72
2021/11/09 11:17:00;;;;;;;13.22;7.78;;;;;;;3.74;59.26;100729.07;1708683;84;21117;-72
2021/11/09 11:19:33;;;;;;;5.12;3.35;;;;;;;3.74;59.76;100722.42;1728088;81;21560;-72
2021/11/09 11:22:05;;;;;;;8.83;4.95;;;;;;;3.67;59.63;100734.80;1746282;81;21578;-74
2021/11/09 11:24:33;;;;;;;4.12;2.25;;;;;;;3.72;59.77;100735.59;1721337;81;25492;-70
2021/11/09 11:27:00;;;;;;;2.70;2.45;;;;;;;3.74;57.92;100736.25;1745375;81;21001;-71
2021/11/09 11:29:32;;;;;;;2.27;2.08;;;;;;;3.76;58.08;100738.22;1739041;81;21074;-72
2021/11/09 11:31:59;;;;;;;3.02;2.72;;;;;;;3.80;58.43;100735.01;1750831;81;20938;-70
2021/11/09 11:34:26;;;;;;;3.52;1.95;;;;;;;3.90;58.37;100744.06;1745326;81;20989;-72
2021/11/09 11:36:52;;;;;;;5.15;3.65;;;;;;;3.88;58.50;100746.10;1742743;81;21090;-73
2021/11/09 11:39:22;;;;;;;10.50;6.37;;;;;;;3.90;59.12;100745.40;1737997;81;21023;-74
2021/11/09 11:41:52;;;;;;;6.37;3.20;;;;;;;3.85;59.45;100762.41;1739895;81;21008;-77
2021/11/09 11:44:24;;;;;;;2.83;1.70;;;;;;;3.85;59.18;100757.09;1717344;81;20965;-75
2021/11/09 11:46:54;;;;;;;2.25;1.52;;;;;;;3.79;59.12;100765.28;1711150;81;21054;-73
2021/11/09 11:49:25;;;;;;;3.22;2.33;;;;;;;3.74;59.31;100764.19;1739031;81;21131;-74
2021/11/09 11:52:01;;;;;;;3.72;2.27;;;;;;;3.66;59.46;100789.01;1737705;81;21283;-73
2021/11/09 11:54:43;;;;;;;11.50;6.83;;;;;;;3.62;59.86;100763.77;1716997;82;21018;-75
2021/11/09 11:57:10;;;;;;;8.78;4.42;;;;;;;3.63;60.07;100775.24;1742703;81;20955;-79
2021/11/09 11:59:40;;;;;;;7.28;4.30;;;;;;;3.60;60.36;100775.08;1750419;81;21101;-81
2021/11/09 12:02:09;;;;;;;6.40;3.67;;;;;;;3.58;60.14;100777.61;1736735;81;21581;-74
2021/11/09 12:04:44;;;;;;;4.78;3.02;;;;;;;3.56;60.26;100798.22;1740497;81;21536;-75
2021/11/09 12:07:15;;;;;;;4.55;2.52;;;;;;;3.53;60.32;100808.73;1739934;81;21574;-73
2021/11/09 12:09:45;;;;;;;2.02;1.75;;;;;;;3.51;60.45;100798.26;1737430;81;21110;-76
2021/11/09 12:12:26;;;;;;;2.50;2.22;;;;;;;3.46;60.47;100801.12;1743799;81;21108;-75
2021/11/09 12:15:01;;;;;;;1.77;1.50;;;;;;;3.43;60.49;100790.34;1714553;82;20904;-74
2021/11/09 12:17:44;;;;;;;3.22;2.92;;;;;;;3.38;60.28;100806.00;1710768;82;20994;-71
2021/11/09 12:20:19;;;;;;;4.70;2.42;;;;;;;3.41;60.70;100798.98;1678697;84;20974;-73
2021/11/09 12:22:54;;;;;;;3.33;1.85;;;;;;;3.45;60.96;100806.13;1744201;81;21063;-74
2021/11/09 12:25:35;;;;;;;1.62;1.52;;;;;;;3.38;61.17;100827.27;1741646;81;21047;-72
2021/11/09 12:28:11;;;;;;;1.50;1.40;;;;;;;3.34;61.54;100816.66;1712610;81;21295;-75
2021/11/09 12:30:47;;;;;;;2.08;1.92;;;;;;;3.31;61.99;100818.33;1734430;81;21303;-78
2021/11/09 12:33:38;;;;;;;4.55;3.27;;;;;;;3.34;62.10;100825.14;1737589;81;21046;-75
2021/11/09 12:36:06;;;;;;;4.97;3.35;;;;;;;3.35;62.26;100836.11;1713040;81;20988;-73
2021/11/09 12:38:53;;;;;;;2.40;1.30;;;;;;;3.31;62.25;100825.50;1720979;81;20969;-74
2021/11/09 12:41:27;;;;;;;3.30;2.55;;;;;;;3.23;62.61;100829.02;1752587;81;21385;-77
2021/11/09 12:44:01;;;;;;;3.70;2.62;;;;;;;3.20;62.92;100838.67;1749348;81;21020;-76
2021/11/09 12:46:36;;;;;;;2.65;2.05;;;;;;;3.22;62.76;100845.12;1696921;83;21087;-74
2021/11/09 12:49:17;;;;;;;3.52;1.85;;;;;;;3.20;62.65;100847.15;1735683;80;20995;-76
2021/11/09 12:51:47;;;;;;;4.00;2.00;;;;;;;3.15;62.50;100851.66;1744036;80;20978;-69
2021/11/09 12:54:28;;;;;;;2.52;1.72;;;;;;;3.12;62.54;100867.13;1743768;80;21061;-72
2021/11/09 12:57:07;;;;;;;1.95;1.70;;;;;;;3.13;62.68;100866.11;1717157;82;21288;-75
2021/11/09 13:02:13;;;;;;;6.55;3.10;;;;;;;3.02;62.75;100852.19;1749504;80;21086;-71
2021/11/09 13:07:29;;;;;;;3.52;1.70;;;;;;;3.05;62.59;100874.45;1744251;82;20983;-75
2021/11/09 13:09:58;;;;;;;1.85;1.52;;;;;;;3.05;62.62;100885.09;1742308;80;21051;-71
2021/11/09 13:12:32;;;;;;;3.35;2.15;;;;;;;2.99;62.28;100896.39;1745257;81;21089;-73
2021/11/09 13:15:06;;;;;;;6.20;3.42;;;;;;;2.93;62.02;100908.20;1721740;80;20955;-73
2021/11/09 13:17:43;;;;;;;4.30;1.98;;;;;;;2.90;61.93;100923.16;1743395;80;21488;-70
2021/11/09 13:22:55;;;;;;;3.80;2.83;;;;;;;2.77;62.02;100911.74;1717587;81;21022;-76
2021/11/09 13:25:40;;;;;;;6.22;3.42;;;;;;;2.76;62.10;100902.61;1724396;80;20958;-74
2021/11/09 13:28:33;;;;;;;5.35;3.12;;;;;;;2.74;62.26;100904.59;1717586;82;20970;-77
2021/11/09 13:31:00;;;;;;;4.00;2.45;;;;;;;2.77;62.31;100931.67;1743270;80;21113;-79
2021/11/09 13:33:27;;;;;;;5.15;3.45;;;;;;;2.72;62.07;100925.20;1689227;83;21103;-75
2021/11/09 13:35:54;;;;;;;3.95;2.47;;;;;;;2.69;62.07;100932.98;1753821;80;21001;-74
2021/11/09 13:38:29;;;;;;;3.08;2.50;;;;;;;2.61;62.25;100934.34;1742670;80;21540;-73
2021/11/09 13:41:02;;;;;;;5.67;4.45;;;;;;;2.49;62.62;100931.21;1715244;80;21021;-77
2021/11/09 13:43:40;;;;;;;5.28;3.42;;;;;;;2.48;62.73;100938.84;1746771;80;21041;-73
2021/11/09 13:46:14;;;;;;;6.58;4.12;;;;;;;2.48;62.75;100950.78;1743200;80;21175;-75
2021/11/09 13:48:44;;;;;;;9.13;4.22;;;;;;;2.47;62.73;100961.56;1765419;80;21005;-72
2021/11/09 13:51:13;;;;;;;5.20;3.30;;;;;;;2.45;62.87;100968.85;1748021;80;21017;-71
2021/11/09 13:53:43;;;;;;;8.15;5.50;;;;;;;2.40;62.89;100979.97;1738203;81;21101;-74
2021/11/09 13:56:18;;;;;;;5.00;2.92;;;;;;;2.38;63.12;100982.47;1731374;81;21045;-73
2021/11/09 13:59:10;;;;;;;7.92;3.83;;;;;;;2.36;63.18;100989.27;1733595;82;21682;-73
2021/11/09 14:07:37;;;;;;;4.53;2.65;;;;;;;2.28;63.40;101003.87;1709082;84;20959;-74